sensor_id;sensor_type;location;lat;lon;timestamp;P1;durP1;ratioP1;P2;durP2;ratioP2
15312;SDS011;7757;52.626;4.746;2022-08-19T00:01:19;8.18;;;2.40;;
15312;SDS011;7757;52.626;4.746;2022-08-19T00:03:46;7.00;;;2.20;;
15312;SDS011;7757;52.626;4.746;2022-08-19T00:06:12;10.45;;;3.03;;
15312;SDS011;7757;52.626;4.746;2022-08-19T00:08:39;10.68;;;2.97;;
15312;SDS011;7757;52.626;4.746;2022-08-19T00:11:06;10.25;;;2.65;;
15312;SDS011;7757;52.626;4.746;2022-08-19T00:13:33;8.45;;;2.50;;
15312;SDS011;7757;52.626;4.746;2022-08-19T00:16:01;10.82;;;2.50;;
15312;SDS011;7757;52.626;4.746;2022-08-19T00:18:28;7.70;;;2.17;;
15312;SDS011;7757;52.626;4.746;2022-08-19T00:20:54;8.55;;;2.53;;
15312;SDS011;7757;52.626;4.746;2022-08-19T00:23:21;8.05;;;2.40;;
15312;SDS011;7757;52.626;4.746;2022-08-19T00:25:47;10.52;;;2.50;;
15312;SDS011;7757;52.626;4.746;2022-08-19T00:28:14;9.18;;;2.80;;
15312;SDS011;7757;52.626;4.746;2022-08-19T00:30:40;7.47;;;2.45;;
15312;SDS011;7757;52.626;4.746;2022-08-19T00:33:08;7.15;;;2.25;;
15312;SDS011;7757;52.626;4.746;2022-08-19T00:35:35;9.02;;;2.40;;
15312;SDS011;7757;52.626;4.746;2022-08-19T00:38:03;8.38;;;2.38;;
15312;SDS011;7757;52.626;4.746;2022-08-19T00:40:31;7.80;;;2.33;;
15312;SDS011;7757;52.626;4.746;2022-08-19T00:42:58;8.50;;;2.40;;
15312;SDS011;7757;52.626;4.746;2022-08-19T00:45:25;7.75;;;2.47;;
15312;SDS011;7757;52.626;4.746;2022-08-19T00:47:55;9.02;;;2.25;;
15312;SDS011;7757;52.626;4.746;2022-08-19T00:50:23;8.30;;;2.50;;
15312;SDS011;7757;52.626;4.746;2022-08-19T00:52:50;10.00;;;2.45;;
15312;SDS011;7757;52.626;4.746;2022-08-19T00:55:18;9.40;;;2.92;;
15312;SDS011;7757;52.626;4.746;2022-08-19T00:57:48;8.23;;;2.60;;
15312;SDS011;7757;52.626;4.746;2022-08-19T01:00:23;7.60;;;2.35;;
15312;SDS011;7757;52.626;4.746;2022-08-19T01:02:51;9.32;;;2.30;;
15312;SDS011;7757;52.626;4.746;2022-08-19T01:05:20;9.85;;;2.58;;
15312;SDS011;7757;52.626;4.746;2022-08-19T01:07:50;10.13;;;2.72;;
15312;SDS011;7757;52.626;4.746;2022-08-19T01:10:17;10.85;;;2.90;;
15312;SDS011;7757;52.626;4.746;2022-08-19T01:12:46;8.25;;;2.75;;
15312;SDS011;7757;52.626;4.746;2022-08-19T01:15:14;8.82;;;2.40;;
15312;SDS011;7757;52.626;4.746;2022-08-19T01:17:44;8.05;;;2.30;;
15312;SDS011;7757;52.626;4.746;2022-08-19T01:20:13;8.73;;;2.42;;
15312;SDS011;7757;52.626;4.746;2022-08-19T01:22:44;9.10;;;2.55;;
15312;SDS011;7757;52.626;4.746;2022-08-19T01:25:12;10.88;;;2.83;;
15312;SDS011;7757;52.626;4.746;2022-08-19T01:27:39;8.65;;;2.60;;
15312;SDS011;7757;52.626;4.746;2022-08-19T01:30:08;7.15;;;2.30;;
15312;SDS011;7757;52.626;4.746;2022-08-19T01:32:37;9.10;;;2.50;;
15312;SDS011;7757;52.626;4.746;2022-08-19T01:35:04;8.05;;;2.50;;
15312;SDS011;7757;52.626;4.746;2022-08-19T01:37:41;8.85;;;2.63;;
15312;SDS011;7757;52.626;4.746;2022-08-19T01:40:10;8.82;;;2.72;;
15312;SDS011;7757;52.626;4.746;2022-08-19T01:42:37;11.05;;;2.63;;
15312;SDS011;7757;52.626;4.746;2022-08-19T01:45:04;8.35;;;2.65;;
15312;SDS011;7757;52.626;4.746;2022-08-19T01:47:33;10.05;;;3.10;;
15312;SDS011;7757;52.626;4.746;2022-08-19T01:50:00;8.52;;;2.80;;
15312;SDS011;7757;52.626;4.746;2022-08-19T01:52:26;9.82;;;3.03;;
15312;SDS011;7757;52.626;4.746;2022-08-19T01:54:54;9.90;;;2.97;;
15312;SDS011;7757;52.626;4.746;2022-08-19T01:57:21;10.85;;;3.13;;
15312;SDS011;7757;52.626;4.746;2022-08-19T01:59:47;10.27;;;2.85;;
15312;SDS011;7757;52.626;4.746;2022-08-19T02:02:15;13.20;;;3.30;;
15312;SDS011;7757;52.626;4.746;2022-08-19T02:04:41;10.98;;;3.88;;
15312;SDS011;7757;52.626;4.746;2022-08-19T02:07:08;10.10;;;3.35;;
15312;SDS011;7757;52.626;4.746;2022-08-19T02:09:34;8.95;;;2.70;;
15312;SDS011;7757;52.626;4.746;2022-08-19T02:12:03;10.80;;;2.80;;
15312;SDS011;7757;52.626;4.746;2022-08-19T02:14:30;11.35;;;3.13;;
15312;SDS011;7757;52.626;4.746;2022-08-19T02:16:56;10.60;;;3.05;;
15312;SDS011;7757;52.626;4.746;2022-08-19T02:19:22;13.23;;;3.00;;
15312;SDS011;7757;52.626;4.746;2022-08-19T02:21:49;10.20;;;3.10;;
15312;SDS011;7757;52.626;4.746;2022-08-19T02:24:15;12.85;;;3.63;;
15312;SDS011;7757;52.626;4.746;2022-08-19T02:26:42;9.73;;;3.10;;
15312;SDS011;7757;52.626;4.746;2022-08-19T02:29:10;9.68;;;2.67;;
15312;SDS011;7757;52.626;4.746;2022-08-19T02:31:36;9.77;;;3.10;;
15312;SDS011;7757;52.626;4.746;2022-08-19T02:34:03;11.57;;;3.53;;
15312;SDS011;7757;52.626;4.746;2022-08-19T02:36:29;11.35;;;3.55;;
15312;SDS011;7757;52.626;4.746;2022-08-19T02:38:56;9.05;;;2.95;;
15312;SDS011;7757;52.626;4.746;2022-08-19T02:41:23;9.10;;;3.13;;
15312;SDS011;7757;52.626;4.746;2022-08-19T02:43:51;10.98;;;3.30;;
15312;SDS011;7757;52.626;4.746;2022-08-19T02:46:20;9.73;;;3.30;;
15312;SDS011;7757;52.626;4.746;2022-08-19T02:48:48;9.70;;;3.20;;
15312;SDS011;7757;52.626;4.746;2022-08-19T02:51:15;8.73;;;2.50;;
15312;SDS011;7757;52.626;4.746;2022-08-19T02:53:43;9.90;;;3.00;;
15312;SDS011;7757;52.626;4.746;2022-08-19T02:56:10;8.90;;;2.72;;
15312;SDS011;7757;52.626;4.746;2022-08-19T02:58:36;11.63;;;3.65;;
15312;SDS011;7757;52.626;4.746;2022-08-19T03:01:03;8.73;;;2.80;;
15312;SDS011;7757;52.626;4.746;2022-08-19T03:03:31;10.98;;;3.00;;
15312;SDS011;7757;52.626;4.746;2022-08-19T03:06:06;16.77;;;3.25;;
15312;SDS011;7757;52.626;4.746;2022-08-19T03:08:35;8.70;;;2.88;;
15312;SDS011;7757;52.626;4.746;2022-08-19T03:11:03;9.20;;;3.00;;
15312;SDS011;7757;52.626;4.746;2022-08-19T03:13:30;10.25;;;3.53;;
15312;SDS011;7757;52.626;4.746;2022-08-19T03:15:57;8.05;;;2.45;;
15312;SDS011;7757;52.626;4.746;2022-08-19T03:18:23;9.25;;;2.60;;
15312;SDS011;7757;52.626;4.746;2022-08-19T03:20:52;10.02;;;2.95;;
15312;SDS011;7757;52.626;4.746;2022-08-19T03:23:19;9.32;;;2.95;;
15312;SDS011;7757;52.626;4.746;2022-08-19T03:25:47;9.98;;;3.25;;
15312;SDS011;7757;52.626;4.746;2022-08-19T03:28:15;9.90;;;3.08;;
15312;SDS011;7757;52.626;4.746;2022-08-19T03:30:43;10.85;;;3.17;;
15312;SDS011;7757;52.626;4.746;2022-08-19T03:33:21;11.07;;;3.40;;
15312;SDS011;7757;52.626;4.746;2022-08-19T03:35:59;9.10;;;3.40;;
15312;SDS011;7757;52.626;4.746;2022-08-19T03:38:27;11.32;;;3.80;;
15312;SDS011;7757;52.626;4.746;2022-08-19T03:40:54;9.80;;;3.80;;
15312;SDS011;7757;52.626;4.746;2022-08-19T03:43:20;10.63;;;3.42;;
15312;SDS011;7757;52.626;4.746;2022-08-19T03:45:47;12.50;;;3.53;;
15312;SDS011;7757;52.626;4.746;2022-08-19T03:48:14;10.40;;;3.70;;
15312;SDS011;7757;52.626;4.746;2022-08-19T03:50:41;11.48;;;4.28;;
15312;SDS011;7757;52.626;4.746;2022-08-19T03:53:09;13.05;;;3.60;;
15312;SDS011;7757;52.626;4.746;2022-08-19T03:55:38;10.30;;;3.50;;
15312;SDS011;7757;52.626;4.746;2022-08-19T03:58:06;10.90;;;3.10;;
15312;SDS011;7757;52.626;4.746;2022-08-19T04:00:32;9.25;;;3.10;;
15312;SDS011;7757;52.626;4.746;2022-08-19T04:02:59;11.60;;;3.63;;
15312;SDS011;7757;52.626;4.746;2022-08-19T04:05:26;11.70;;;3.45;;
15312;SDS011;7757;52.626;4.746;2022-08-19T04:07:53;12.02;;;3.90;;
15312;SDS011;7757;52.626;4.746;2022-08-19T04:10:21;9.55;;;3.35;;
15312;SDS011;7757;52.626;4.746;2022-08-19T04:12:49;9.50;;;3.10;;
15312;SDS011;7757;52.626;4.746;2022-08-19T04:15:15;9.93;;;3.38;;
15312;SDS011;7757;52.626;4.746;2022-08-19T04:17:42;11.27;;;4.00;;
15312;SDS011;7757;52.626;4.746;2022-08-19T04:20:08;11.18;;;3.72;;
15312;SDS011;7757;52.626;4.746;2022-08-19T04:22:35;11.82;;;4.32;;
15312;SDS011;7757;52.626;4.746;2022-08-19T04:25:02;13.38;;;5.30;;
15312;SDS011;7757;52.626;4.746;2022-08-19T04:27:30;11.90;;;4.18;;
15312;SDS011;7757;52.626;4.746;2022-08-19T04:29:58;15.30;;;5.70;;
15312;SDS011;7757;52.626;4.746;2022-08-19T04:32:24;12.70;;;4.82;;
15312;SDS011;7757;52.626;4.746;2022-08-19T04:34:51;14.13;;;4.40;;
15312;SDS011;7757;52.626;4.746;2022-08-19T04:37:18;12.30;;;4.32;;
15312;SDS011;7757;52.626;4.746;2022-08-19T04:39:44;12.00;;;4.63;;
15312;SDS011;7757;52.626;4.746;2022-08-19T04:42:29;11.50;;;4.43;;
15312;SDS011;7757;52.626;4.746;2022-08-19T04:45:07;11.95;;;4.35;;
15312;SDS011;7757;52.626;4.746;2022-08-19T04:47:36;12.02;;;4.25;;
15312;SDS011;7757;52.626;4.746;2022-08-19T04:50:03;12.50;;;4.60;;
15312;SDS011;7757;52.626;4.746;2022-08-19T04:52:30;11.68;;;3.97;;
15312;SDS011;7757;52.626;4.746;2022-08-19T04:54:57;14.15;;;4.30;;
15312;SDS011;7757;52.626;4.746;2022-08-19T04:57:23;11.40;;;4.18;;
15312;SDS011;7757;52.626;4.746;2022-08-19T04:59:54;11.90;;;4.30;;
15312;SDS011;7757;52.626;4.746;2022-08-19T05:02:22;11.15;;;4.07;;
15312;SDS011;7757;52.626;4.746;2022-08-19T05:04:50;12.85;;;5.13;;
15312;SDS011;7757;52.626;4.746;2022-08-19T05:07:17;13.55;;;4.97;;
15312;SDS011;7757;52.626;4.746;2022-08-19T05:09:43;12.75;;;4.45;;
15312;SDS011;7757;52.626;4.746;2022-08-19T05:12:10;11.88;;;4.40;;
15312;SDS011;7757;52.626;4.746;2022-08-19T05:14:36;12.20;;;4.80;;
15312;SDS011;7757;52.626;4.746;2022-08-19T05:17:04;14.75;;;5.50;;
15312;SDS011;7757;52.626;4.746;2022-08-19T05:19:31;13.05;;;4.57;;
15312;SDS011;7757;52.626;4.746;2022-08-19T05:25:01;19.35;;;8.15;;
15312;SDS011;7757;52.626;4.746;2022-08-19T05:27:30;20.77;;;8.10;;
15312;SDS011;7757;52.626;4.746;2022-08-19T05:29:57;17.90;;;7.22;;
15312;SDS011;7757;52.626;4.746;2022-08-19T05:32:26;18.80;;;6.85;;
15312;SDS011;7757;52.626;4.746;2022-08-19T05:34:53;17.45;;;6.25;;
15312;SDS011;7757;52.626;4.746;2022-08-19T05:37:19;19.35;;;6.95;;
15312;SDS011;7757;52.626;4.746;2022-08-19T05:39:47;26.17;;;7.78;;
15312;SDS011;7757;52.626;4.746;2022-08-19T05:42:14;28.60;;;8.48;;
15312;SDS011;7757;52.626;4.746;2022-08-19T05:44:42;28.70;;;8.68;;
15312;SDS011;7757;52.626;4.746;2022-08-19T05:47:11;28.63;;;9.05;;
15312;SDS011;7757;52.626;4.746;2022-08-19T05:49:41;26.92;;;8.55;;
15312;SDS011;7757;52.626;4.746;2022-08-19T05:52:09;28.23;;;8.90;;
15312;SDS011;7757;52.626;4.746;2022-08-19T05:54:37;32.47;;;9.00;;
15312;SDS011;7757;52.626;4.746;2022-08-19T05:57:05;26.52;;;8.50;;
15312;SDS011;7757;52.626;4.746;2022-08-19T05:59:32;25.02;;;8.68;;
15312;SDS011;7757;52.626;4.746;2022-08-19T06:02:00;23.20;;;8.38;;
15312;SDS011;7757;52.626;4.746;2022-08-19T06:04:27;26.02;;;8.75;;
15312;SDS011;7757;52.626;4.746;2022-08-19T06:06:55;20.42;;;7.90;;
15312;SDS011;7757;52.626;4.746;2022-08-19T06:09:23;21.00;;;7.78;;
15312;SDS011;7757;52.626;4.746;2022-08-19T06:11:50;23.65;;;7.55;;
15312;SDS011;7757;52.626;4.746;2022-08-19T06:14:20;22.40;;;8.48;;
15312;SDS011;7757;52.626;4.746;2022-08-19T06:16:48;19.40;;;7.28;;
15312;SDS011;7757;52.626;4.746;2022-08-19T06:19:17;20.67;;;7.57;;
15312;SDS011;7757;52.626;4.746;2022-08-19T06:21:46;18.52;;;7.45;;
15312;SDS011;7757;52.626;4.746;2022-08-19T06:24:17;21.15;;;7.68;;
15312;SDS011;7757;52.626;4.746;2022-08-19T06:26:46;20.80;;;7.85;;
15312;SDS011;7757;52.626;4.746;2022-08-19T06:29:14;21.67;;;7.90;;
15312;SDS011;7757;52.626;4.746;2022-08-19T06:31:43;25.13;;;7.90;;
15312;SDS011;7757;52.626;4.746;2022-08-19T06:34:11;19.02;;;6.55;;
15312;SDS011;7757;52.626;4.746;2022-08-19T06:36:38;20.65;;;7.72;;
15312;SDS011;7757;52.626;4.746;2022-08-19T06:39:09;19.02;;;7.18;;
15312;SDS011;7757;52.626;4.746;2022-08-19T06:41:40;18.23;;;6.90;;
15312;SDS011;7757;52.626;4.746;2022-08-19T06:44:08;20.92;;;7.82;;
15312;SDS011;7757;52.626;4.746;2022-08-19T06:46:35;17.67;;;6.88;;
15312;SDS011;7757;52.626;4.746;2022-08-19T06:49:02;18.92;;;7.65;;
15312;SDS011;7757;52.626;4.746;2022-08-19T06:51:29;21.58;;;8.07;;
15312;SDS011;7757;52.626;4.746;2022-08-19T06:53:57;18.27;;;7.72;;
15312;SDS011;7757;52.626;4.746;2022-08-19T06:56:25;19.40;;;8.55;;
15312;SDS011;7757;52.626;4.746;2022-08-19T06:58:57;18.45;;;7.35;;
15312;SDS011;7757;52.626;4.746;2022-08-19T07:01:23;20.58;;;7.35;;
15312;SDS011;7757;52.626;4.746;2022-08-19T07:03:50;18.40;;;7.22;;
15312;SDS011;7757;52.626;4.746;2022-08-19T07:06:17;18.80;;;7.47;;
15312;SDS011;7757;52.626;4.746;2022-08-19T07:08:45;22.63;;;10.00;;
15312;SDS011;7757;52.626;4.746;2022-08-19T07:11:14;17.63;;;7.40;;
15312;SDS011;7757;52.626;4.746;2022-08-19T07:13:43;20.33;;;6.85;;
15312;SDS011;7757;52.626;4.746;2022-08-19T07:16:13;15.82;;;5.72;;
15312;SDS011;7757;52.626;4.746;2022-08-19T07:18:41;15.90;;;5.90;;
15312;SDS011;7757;52.626;4.746;2022-08-19T07:21:10;15.57;;;5.65;;
15312;SDS011;7757;52.626;4.746;2022-08-19T07:23:38;21.17;;;6.30;;
15312;SDS011;7757;52.626;4.746;2022-08-19T07:26:05;20.65;;;5.75;;
15312;SDS011;7757;52.626;4.746;2022-08-19T07:28:33;17.20;;;5.88;;
15312;SDS011;7757;52.626;4.746;2022-08-19T07:30:59;15.88;;;5.28;;
15312;SDS011;7757;52.626;4.746;2022-08-19T07:33:29;15.18;;;4.80;;
15312;SDS011;7757;52.626;4.746;2022-08-19T07:35:57;18.08;;;5.38;;
15312;SDS011;7757;52.626;4.746;2022-08-19T07:38:24;16.55;;;5.25;;
15312;SDS011;7757;52.626;4.746;2022-08-19T07:40:50;17.58;;;6.03;;
15312;SDS011;7757;52.626;4.746;2022-08-19T07:43:17;16.95;;;5.78;;
15312;SDS011;7757;52.626;4.746;2022-08-19T07:45:45;15.35;;;4.95;;
15312;SDS011;7757;52.626;4.746;2022-08-19T07:48:12;15.82;;;5.07;;
15312;SDS011;7757;52.626;4.746;2022-08-19T07:50:40;15.85;;;4.97;;
15312;SDS011;7757;52.626;4.746;2022-08-19T07:53:07;15.77;;;5.32;;
15312;SDS011;7757;52.626;4.746;2022-08-19T07:55:33;18.10;;;5.20;;
15312;SDS011;7757;52.626;4.746;2022-08-19T07:58:00;16.20;;;4.70;;
15312;SDS011;7757;52.626;4.746;2022-08-19T08:00:26;14.40;;;5.53;;
15312;SDS011;7757;52.626;4.746;2022-08-19T08:02:53;15.88;;;5.85;;
15312;SDS011;7757;52.626;4.746;2022-08-19T08:05:19;15.55;;;5.40;;
15312;SDS011;7757;52.626;4.746;2022-08-19T08:11:03;14.73;;;4.50;;
15312;SDS011;7757;52.626;4.746;2022-08-19T08:13:30;16.65;;;5.30;;
15312;SDS011;7757;52.626;4.746;2022-08-19T08:15:57;17.58;;;5.78;;
15312;SDS011;7757;52.626;4.746;2022-08-19T08:18:24;15.18;;;5.78;;
15312;SDS011;7757;52.626;4.746;2022-08-19T08:20:51;18.38;;;5.20;;
15312;SDS011;7757;52.626;4.746;2022-08-19T08:23:19;14.50;;;4.28;;
15312;SDS011;7757;52.626;4.746;2022-08-19T08:25:50;20.00;;;5.38;;
15312;SDS011;7757;52.626;4.746;2022-08-19T08:28:18;17.42;;;5.32;;
15312;SDS011;7757;52.626;4.746;2022-08-19T08:30:45;17.23;;;5.32;;
15312;SDS011;7757;52.626;4.746;2022-08-19T08:33:14;13.00;;;4.70;;
15312;SDS011;7757;52.626;4.746;2022-08-19T08:35:43;15.65;;;5.03;;
15312;SDS011;7757;52.626;4.746;2022-08-19T08:38:10;14.07;;;4.70;;
15312;SDS011;7757;52.626;4.746;2022-08-19T08:40:43;14.27;;;4.10;;
15312;SDS011;7757;52.626;4.746;2022-08-19T08:43:19;16.02;;;5.43;;
15312;SDS011;7757;52.626;4.746;2022-08-19T08:45:52;14.52;;;4.85;;
15312;SDS011;7757;52.626;4.746;2022-08-19T08:48:23;13.63;;;4.43;;
15312;SDS011;7757;52.626;4.746;2022-08-19T08:50:53;11.27;;;4.10;;
15312;SDS011;7757;52.626;4.746;2022-08-19T08:53:22;13.80;;;4.30;;
15312;SDS011;7757;52.626;4.746;2022-08-19T08:55:52;13.77;;;4.65;;
15312;SDS011;7757;52.626;4.746;2022-08-19T08:58:21;13.50;;;3.75;;
15312;SDS011;7757;52.626;4.746;2022-08-19T09:00:54;14.18;;;4.97;;
15312;SDS011;7757;52.626;4.746;2022-08-19T09:03:22;11.75;;;3.88;;
15312;SDS011;7757;52.626;4.746;2022-08-19T09:05:54;13.77;;;4.20;;
15312;SDS011;7757;52.626;4.746;2022-08-19T09:08:28;14.20;;;4.18;;
15312;SDS011;7757;52.626;4.746;2022-08-19T09:11:06;14.02;;;3.88;;
15312;SDS011;7757;52.626;4.746;2022-08-19T09:13:36;15.90;;;4.10;;
15312;SDS011;7757;52.626;4.746;2022-08-19T09:16:11;12.38;;;4.18;;
15312;SDS011;7757;52.626;4.746;2022-08-19T09:18:40;13.23;;;4.60;;
15312;SDS011;7757;52.626;4.746;2022-08-19T09:21:08;13.02;;;3.78;;
15312;SDS011;7757;52.626;4.746;2022-08-19T09:23:35;18.52;;;5.25;;
15312;SDS011;7757;52.626;4.746;2022-08-19T09:26:07;16.27;;;4.63;;
15312;SDS011;7757;52.626;4.746;2022-08-19T09:28:35;15.73;;;5.40;;
15312;SDS011;7757;52.626;4.746;2022-08-19T09:31:02;14.50;;;4.80;;
15312;SDS011;7757;52.626;4.746;2022-08-19T09:33:28;15.15;;;4.88;;
15312;SDS011;7757;52.626;4.746;2022-08-19T09:36:01;13.75;;;4.95;;
15312;SDS011;7757;52.626;4.746;2022-08-19T09:38:29;11.80;;;4.25;;
15312;SDS011;7757;52.626;4.746;2022-08-19T09:40:56;15.93;;;5.20;;
15312;SDS011;7757;52.626;4.746;2022-08-19T09:43:31;15.70;;;5.95;;
15312;SDS011;7757;52.626;4.746;2022-08-19T09:45:58;13.65;;;4.05;;
15312;SDS011;7757;52.626;4.746;2022-08-19T09:48:25;14.90;;;4.82;;
15312;SDS011;7757;52.626;4.746;2022-08-19T09:50:52;14.75;;;4.45;;
15312;SDS011;7757;52.626;4.746;2022-08-19T09:53:19;14.70;;;5.75;;
15312;SDS011;7757;52.626;4.746;2022-08-19T09:55:47;12.30;;;4.32;;
15312;SDS011;7757;52.626;4.746;2022-08-19T09:58:14;13.48;;;4.95;;
15312;SDS011;7757;52.626;4.746;2022-08-19T10:00:42;20.08;;;5.18;;
15312;SDS011;7757;52.626;4.746;2022-08-19T10:03:08;16.48;;;4.57;;
15312;SDS011;7757;52.626;4.746;2022-08-19T10:05:36;11.93;;;4.10;;
15312;SDS011;7757;52.626;4.746;2022-08-19T10:08:15;13.38;;;4.30;;
15312;SDS011;7757;52.626;4.746;2022-08-19T10:10:43;13.95;;;4.60;;
15312;SDS011;7757;52.626;4.746;2022-08-19T10:13:11;13.02;;;3.60;;
15312;SDS011;7757;52.626;4.746;2022-08-19T10:15:39;14.85;;;4.28;;
15312;SDS011;7757;52.626;4.746;2022-08-19T10:18:07;10.95;;;3.92;;
15312;SDS011;7757;52.626;4.746;2022-08-19T10:20:34;16.83;;;5.35;;
15312;SDS011;7757;52.626;4.746;2022-08-19T10:23:01;12.63;;;4.03;;
15312;SDS011;7757;52.626;4.746;2022-08-19T10:25:28;11.02;;;3.78;;
15312;SDS011;7757;52.626;4.746;2022-08-19T10:27:54;12.95;;;4.18;;
15312;SDS011;7757;52.626;4.746;2022-08-19T10:30:21;11.68;;;4.32;;
15312;SDS011;7757;52.626;4.746;2022-08-19T10:32:47;14.40;;;4.88;;
15312;SDS011;7757;52.626;4.746;2022-08-19T10:35:15;13.57;;;4.22;;
15312;SDS011;7757;52.626;4.746;2022-08-19T10:37:42;12.05;;;4.03;;
15312;SDS011;7757;52.626;4.746;2022-08-19T10:40:09;11.25;;;4.07;;
15312;SDS011;7757;52.626;4.746;2022-08-19T10:42:36;17.23;;;4.30;;
15312;SDS011;7757;52.626;4.746;2022-08-19T10:45:04;12.25;;;4.25;;
15312;SDS011;7757;52.626;4.746;2022-08-19T10:47:31;11.00;;;3.72;;
15312;SDS011;7757;52.626;4.746;2022-08-19T10:49:58;11.68;;;4.05;;
15312;SDS011;7757;52.626;4.746;2022-08-19T10:52:45;12.80;;;3.67;;
15312;SDS011;7757;52.626;4.746;2022-08-19T10:55:12;14.65;;;4.45;;
15312;SDS011;7757;52.626;4.746;2022-08-19T10:57:56;12.23;;;3.97;;
15312;SDS011;7757;52.626;4.746;2022-08-19T11:00:23;16.85;;;4.15;;
15312;SDS011;7757;52.626;4.746;2022-08-19T11:02:50;12.57;;;4.13;;
15312;SDS011;7757;52.626;4.746;2022-08-19T11:05:17;11.70;;;3.65;;
15312;SDS011;7757;52.626;4.746;2022-08-19T11:07:46;12.45;;;3.80;;
15312;SDS011;7757;52.626;4.746;2022-08-19T11:10:15;12.73;;;3.90;;
15312;SDS011;7757;52.626;4.746;2022-08-19T11:12:44;15.52;;;4.10;;
15312;SDS011;7757;52.626;4.746;2022-08-19T11:15:11;12.35;;;3.50;;
15312;SDS011;7757;52.626;4.746;2022-08-19T11:17:37;16.05;;;3.88;;
15312;SDS011;7757;52.626;4.746;2022-08-19T11:20:08;12.65;;;3.90;;
15312;SDS011;7757;52.626;4.746;2022-08-19T11:22:35;11.50;;;3.85;;
15312;SDS011;7757;52.626;4.746;2022-08-19T11:25:04;11.27;;;3.95;;
15312;SDS011;7757;52.626;4.746;2022-08-19T11:27:31;10.45;;;3.42;;
15312;SDS011;7757;52.626;4.746;2022-08-19T11:29:58;10.68;;;3.17;;
15312;SDS011;7757;52.626;4.746;2022-08-19T11:32:25;10.98;;;3.30;;
15312;SDS011;7757;52.626;4.746;2022-08-19T11:34:52;13.50;;;3.15;;
15312;SDS011;7757;52.626;4.746;2022-08-19T11:37:19;10.90;;;3.13;;
15312;SDS011;7757;52.626;4.746;2022-08-19T11:39:45;10.50;;;2.80;;
15312;SDS011;7757;52.626;4.746;2022-08-19T11:42:13;11.07;;;3.00;;
15312;SDS011;7757;52.626;4.746;2022-08-19T11:44:57;9.75;;;2.88;;
15312;SDS011;7757;52.626;4.746;2022-08-19T11:47:24;12.20;;;3.60;;
15312;SDS011;7757;52.626;4.746;2022-08-19T11:49:51;12.35;;;3.58;;
15312;SDS011;7757;52.626;4.746;2022-08-19T11:52:18;12.18;;;3.65;;
15312;SDS011;7757;52.626;4.746;2022-08-19T11:54:44;12.63;;;3.47;;
15312;SDS011;7757;52.626;4.746;2022-08-19T11:57:11;11.00;;;3.97;;
15312;SDS011;7757;52.626;4.746;2022-08-19T11:59:40;12.10;;;3.97;;
15312;SDS011;7757;52.626;4.746;2022-08-19T12:02:07;15.43;;;3.83;;
15312;SDS011;7757;52.626;4.746;2022-08-19T12:04:34;15.43;;;4.30;;
15312;SDS011;7757;52.626;4.746;2022-08-19T12:07:00;12.27;;;3.90;;
15312;SDS011;7757;52.626;4.746;2022-08-19T12:09:28;12.07;;;3.75;;
15312;SDS011;7757;52.626;4.746;2022-08-19T12:11:54;9.85;;;3.53;;
15312;SDS011;7757;52.626;4.746;2022-08-19T12:14:21;13.23;;;4.30;;
15312;SDS011;7757;52.626;4.746;2022-08-19T12:16:49;15.48;;;4.13;;
15312;SDS011;7757;52.626;4.746;2022-08-19T12:19:16;11.88;;;3.65;;
15312;SDS011;7757;52.626;4.746;2022-08-19T12:21:42;10.95;;;3.40;;
15312;SDS011;7757;52.626;4.746;2022-08-19T12:24:09;12.07;;;3.97;;
15312;SDS011;7757;52.626;4.746;2022-08-19T12:26:36;10.52;;;3.10;;
15312;SDS011;7757;52.626;4.746;2022-08-19T12:29:02;12.52;;;3.20;;
15312;SDS011;7757;52.626;4.746;2022-08-19T12:31:29;16.52;;;3.63;;
15312;SDS011;7757;52.626;4.746;2022-08-19T12:33:58;10.50;;;3.33;;
15312;SDS011;7757;52.626;4.746;2022-08-19T12:36:25;9.93;;;3.00;;
15312;SDS011;7757;52.626;4.746;2022-08-19T12:38:52;11.18;;;3.15;;
15312;SDS011;7757;52.626;4.746;2022-08-19T12:41:19;11.25;;;3.33;;
15312;SDS011;7757;52.626;4.746;2022-08-19T12:43:47;11.40;;;3.60;;
15312;SDS011;7757;52.626;4.746;2022-08-19T12:46:14;9.85;;;3.20;;
15312;SDS011;7757;52.626;4.746;2022-08-19T12:48:40;11.45;;;2.92;;
15312;SDS011;7757;52.626;4.746;2022-08-19T12:51:11;9.95;;;2.85;;
15312;SDS011;7757;52.626;4.746;2022-08-19T12:53:39;12.32;;;2.90;;
15312;SDS011;7757;52.626;4.746;2022-08-19T12:56:06;9.60;;;2.97;;
15312;SDS011;7757;52.626;4.746;2022-08-19T12:58:33;10.65;;;3.22;;
15312;SDS011;7757;52.626;4.746;2022-08-19T13:01:05;11.48;;;3.25;;
15312;SDS011;7757;52.626;4.746;2022-08-19T13:03:32;11.35;;;3.17;;
15312;SDS011;7757;52.626;4.746;2022-08-19T13:05:59;10.15;;;3.10;;
15312;SDS011;7757;52.626;4.746;2022-08-19T13:08:27;10.13;;;3.10;;
15312;SDS011;7757;52.626;4.746;2022-08-19T13:10:53;9.68;;;2.80;;
15312;SDS011;7757;52.626;4.746;2022-08-19T13:13:20;12.27;;;3.30;;
15312;SDS011;7757;52.626;4.746;2022-08-19T13:15:47;11.88;;;3.00;;
15312;SDS011;7757;52.626;4.746;2022-08-19T13:18:14;11.20;;;3.20;;
15312;SDS011;7757;52.626;4.746;2022-08-19T13:20:40;11.98;;;3.65;;
15312;SDS011;7757;52.626;4.746;2022-08-19T13:23:07;10.38;;;3.00;;
15312;SDS011;7757;52.626;4.746;2022-08-19T13:25:35;10.32;;;2.80;;
15312;SDS011;7757;52.626;4.746;2022-08-19T13:28:02;10.68;;;3.13;;
15312;SDS011;7757;52.626;4.746;2022-08-19T13:30:31;9.57;;;2.85;;
15312;SDS011;7757;52.626;4.746;2022-08-19T13:33:16;9.13;;;2.58;;
15312;SDS011;7757;52.626;4.746;2022-08-19T13:35:44;11.35;;;2.70;;
15312;SDS011;7757;52.626;4.746;2022-08-19T13:38:13;9.35;;;2.67;;
15312;SDS011;7757;52.626;4.746;2022-08-19T13:40:43;9.13;;;2.40;;
15312;SDS011;7757;52.626;4.746;2022-08-19T13:43:10;8.45;;;2.53;;
15312;SDS011;7757;52.626;4.746;2022-08-19T13:45:36;10.07;;;2.65;;
15312;SDS011;7757;52.626;4.746;2022-08-19T13:48:04;12.73;;;2.60;;
15312;SDS011;7757;52.626;4.746;2022-08-19T13:50:33;9.63;;;2.70;;
15312;SDS011;7757;52.626;4.746;2022-08-19T13:53:01;10.07;;;2.47;;
15312;SDS011;7757;52.626;4.746;2022-08-19T13:55:29;9.25;;;2.70;;
15312;SDS011;7757;52.626;4.746;2022-08-19T13:57:58;10.40;;;3.03;;
15312;SDS011;7757;52.626;4.746;2022-08-19T14:00:26;10.15;;;2.50;;
15312;SDS011;7757;52.626;4.746;2022-08-19T14:02:55;8.38;;;2.20;;
15312;SDS011;7757;52.626;4.746;2022-08-19T14:05:22;9.80;;;2.50;;
15312;SDS011;7757;52.626;4.746;2022-08-19T14:07:51;7.95;;;2.15;;
15312;SDS011;7757;52.626;4.746;2022-08-19T14:10:17;10.30;;;2.38;;
15312;SDS011;7757;52.626;4.746;2022-08-19T14:12:45;8.63;;;2.30;;
15312;SDS011;7757;52.626;4.746;2022-08-19T14:15:13;9.35;;;2.60;;
15312;SDS011;7757;52.626;4.746;2022-08-19T14:17:41;11.27;;;2.45;;
15312;SDS011;7757;52.626;4.746;2022-08-19T14:20:09;8.82;;;2.60;;
15312;SDS011;7757;52.626;4.746;2022-08-19T14:22:38;8.20;;;2.40;;
15312;SDS011;7757;52.626;4.746;2022-08-19T14:25:07;12.77;;;3.10;;
15312;SDS011;7757;52.626;4.746;2022-08-19T14:27:36;38.40;;;8.10;;
15312;SDS011;7757;52.626;4.746;2022-08-19T14:30:04;22.63;;;5.70;;
15312;SDS011;7757;52.626;4.746;2022-08-19T14:32:33;20.45;;;5.10;;
15312;SDS011;7757;52.626;4.746;2022-08-19T14:35:00;18.23;;;4.18;;
15312;SDS011;7757;52.626;4.746;2022-08-19T14:37:27;14.52;;;3.65;;
15312;SDS011;7757;52.626;4.746;2022-08-19T14:39:53;11.20;;;3.35;;
15312;SDS011;7757;52.626;4.746;2022-08-19T14:42:20;13.27;;;3.25;;
15312;SDS011;7757;52.626;4.746;2022-08-19T14:44:47;12.30;;;2.92;;
15312;SDS011;7757;52.626;4.746;2022-08-19T14:47:13;11.65;;;2.78;;
15312;SDS011;7757;52.626;4.746;2022-08-19T14:49:41;11.80;;;2.85;;
15312;SDS011;7757;52.626;4.746;2022-08-19T14:52:08;9.50;;;2.55;;
15312;SDS011;7757;52.626;4.746;2022-08-19T14:54:35;12.38;;;2.97;;
15312;SDS011;7757;52.626;4.746;2022-08-19T14:57:02;10.05;;;2.78;;
15312;SDS011;7757;52.626;4.746;2022-08-19T14:59:28;10.10;;;2.70;;
15312;SDS011;7757;52.626;4.746;2022-08-19T15:01:55;10.00;;;2.67;;